메인 페이지
METAR-TAF:

METAR-TAF

공항 :

퀴라소, 네덜란드령 안틸레스

위도: 12-12N, 경도: 068-58W, 고도: 9m

현재 날씨관측

예보는 52분 전, 19:00시(UTC)에 발표되었습니다.
13kt
온도 31°C
습도 63%
기압 1008 hPa
시정 10km 이상
고도 2800ft 상공 구름 조금

METAR: TNCC 121900Z 09013KT 9999 FEW028 31/23 Q1008 NOSIG

시각: 15:52 (19:52 UTC)

예보

예보는 2 시간 37분 전, 17:15시(UTC)에 발표되었습니다.
예보 대상 시간: 12일 18시부터 13일 18시까지 (UTC)
13kt
시정 10km 이상
고도 2000ft 상공 구름 보통
일시적
12일 21시부터 12일 24시까지 (UTC)
고도 1400ft 상공 구름 많음
일시적
13일 04시부터 13일 12시까지 (UTC)
고도 1400ft 상공 구름 많음

TAF: TNCC 121715Z 1218/1318 10013KT 9999 SCT020 TEMPO 1221/1224 BKN014 TEMPO 1304/1312 BKN014

4,000개 이상의 공항 관측 자료 및 예보 (METAR 및 TAF 보고).

지도상에서 검색 가능한 기상관측소가 노란 점과 빨간 점으로 표시되어 있습니다.

기상관측소 명을 보려면 표시 위로 마우스를 이동하세요.

날씨 관측과 예보를 보려면 클릭하세요.

지도 변경 : 확대하려면 엑스 표시가 있는 녹색 버튼, 축소하려면 빼기 표시가 있는 녹색 버튼, 다음 페이지의 지도를 보려면 녹색 화살표를 클릭하세요.


METAR-TAF: